createdAt,value
2022-10-20T00:01:12.656Z,57.95
2022-10-20T00:03:40.917Z,56.26
2022-10-20T00:06:13.159Z,55.75
2022-10-20T00:08:43.181Z,55.92
2022-10-20T00:11:13.739Z,56.69
2022-10-20T00:13:43.720Z,55.48
2022-10-20T00:16:12.220Z,55.86
2022-10-20T00:18:41.144Z,55.35
2022-10-20T00:21:13.822Z,55.96
2022-10-20T00:23:42.229Z,56.43
2022-10-20T00:26:13.139Z,55.86
2022-10-20T00:28:42.525Z,54.88
2022-10-20T00:31:10.826Z,55.98
2022-10-20T00:33:39.156Z,55.73
2022-10-20T00:36:09.641Z,55.40
2022-10-20T00:38:39.315Z,55.78
2022-10-20T00:41:07.921Z,55.61
2022-10-20T00:43:49.131Z,57.33
2022-10-20T00:46:20.689Z,58.45
2022-10-20T00:48:51.457Z,59.72
2022-10-20T00:51:23.854Z,58.50
2022-10-20T00:53:58.428Z,57.89
2022-10-20T00:56:26.864Z,59.63
2022-10-20T00:58:55.895Z,59.08
2022-10-20T01:01:24.196Z,59.77
2022-10-20T01:03:52.941Z,61.73
2022-10-20T01:06:23.611Z,60.11
2022-10-20T01:08:55.384Z,59.85
2022-10-20T01:11:35.314Z,59.90
2022-10-20T01:14:21.748Z,60.35
2022-10-20T01:17:00.200Z,58.75
2022-10-20T01:20:04.810Z,58.57
2022-10-20T01:23:07.765Z,60.67
2022-10-20T01:25:51.817Z,62.28
2022-10-20T01:28:28.717Z,63.61
2022-10-20T01:31:01.293Z,64.30
2022-10-20T01:33:38.161Z,65.12
2022-10-20T01:36:12.689Z,64.27
2022-10-20T01:38:45.435Z,62.26
2022-10-20T01:41:23.480Z,61.62
2022-10-20T01:43:55.507Z,61.47
2022-10-20T01:46:26.631Z,60.69
2022-10-20T01:48:55.732Z,60.15
2022-10-20T01:51:23.961Z,60.39
2022-10-20T01:53:52.258Z,61.50
2022-10-20T01:56:28.485Z,62.45
2022-10-20T01:59:26.461Z,61.66
2022-10-20T02:02:07.513Z,60.04
2022-10-20T02:04:48.844Z,58.96
2022-10-20T02:07:25.433Z,58.89
2022-10-20T02:10:00.906Z,58.69
2022-10-20T02:12:33.926Z,61.11
2022-10-20T02:15:04.889Z,59.28
2022-10-20T02:17:37.013Z,60.29
2022-10-20T02:20:07.574Z,60.40
2022-10-20T02:22:36.810Z,58.77
2022-10-20T02:25:05.821Z,60.55
2022-10-20T02:27:37.392Z,60.88
2022-10-20T02:30:09.971Z,60.94
2022-10-20T02:32:40.493Z,59.70
2022-10-20T02:35:12.741Z,59.62
2022-10-20T02:37:41.028Z,62.47
2022-10-20T02:40:10.277Z,60.49
2022-10-20T02:42:40.806Z,60.40
2022-10-20T02:45:11.655Z,60.06
2022-10-20T02:47:40.056Z,60.38
2022-10-20T02:50:09.477Z,62.63
2022-10-20T02:52:38.195Z,60.89
2022-10-20T02:55:07.406Z,62.22
2022-10-20T02:57:36.064Z,61.84
2022-10-20T03:00:05.995Z,63.01
2022-10-20T03:02:35.924Z,62.24
2022-10-20T03:05:04.655Z,64.12
2022-10-20T03:07:33.128Z,63.66
2022-10-20T03:10:01.484Z,62.00
2022-10-20T03:12:31.531Z,61.53
2022-10-20T03:15:00.700Z,61.40
2022-10-20T03:17:28.996Z,61.82
2022-10-20T03:19:59.616Z,61.19
2022-10-20T03:25:01.128Z,59.76
2022-10-20T03:27:29.387Z,60.08
2022-10-20T03:29:57.655Z,60.53
2022-10-20T03:32:26.069Z,60.36
2022-10-20T03:34:54.333Z,59.76
2022-10-20T03:37:24.136Z,59.84
2022-10-20T03:39:52.408Z,59.85
2022-10-20T03:42:20.735Z,60.68
2022-10-20T03:44:48.920Z,61.39
2022-10-20T03:47:17.209Z,60.86
2022-10-20T03:49:45.562Z,62.14
2022-10-20T03:52:13.796Z,63.77
2022-10-20T03:54:43.445Z,63.19
2022-10-20T03:57:11.716Z,63.14
2022-10-20T03:59:39.948Z,64.51
2022-10-20T04:02:08.291Z,66.02
2022-10-20T04:04:36.602Z,65.03
2022-10-20T04:07:04.879Z,64.30
2022-10-20T04:09:33.155Z,64.53
2022-10-20T04:12:02.874Z,65.21
2022-10-20T04:14:31.247Z,66.78
2022-10-20T04:16:59.521Z,66.97
2022-10-20T04:19:27.823Z,66.77
2022-10-20T04:21:56.092Z,65.72
2022-10-20T04:24:24.344Z,65.19
2022-10-20T04:26:52.654Z,65.71
2022-10-20T04:29:22.439Z,67.13
2022-10-20T04:31:50.830Z,70.25
2022-10-20T04:34:19.344Z,68.68
2022-10-20T04:36:47.586Z,68.65
2022-10-20T04:39:16.162Z,68.88
2022-10-20T04:41:44.553Z,68.74
2022-10-20T04:44:12.909Z,71.31
2022-10-20T04:46:42.648Z,69.95
2022-10-20T04:49:11.117Z,68.29
2022-10-20T04:51:39.448Z,67.16
2022-10-20T04:54:07.738Z,66.84
2022-10-20T04:56:36.050Z,66.86
2022-10-20T04:59:08.407Z,65.63
2022-10-20T05:01:40.115Z,66.42
2022-10-20T05:04:10.984Z,70.42
2022-10-20T05:06:39.264Z,72.42
2022-10-20T05:09:09.349Z,72.72
2022-10-20T05:11:38.715Z,69.76
2022-10-20T05:14:07.816Z,67.17
2022-10-20T05:16:36.577Z,66.20
2022-10-20T05:19:04.824Z,65.92
2022-10-20T05:21:34.758Z,71.24
2022-10-20T05:24:05.400Z,73.69
2022-10-20T05:26:37.470Z,72.63
2022-10-20T05:29:07.493Z,74.11
2022-10-20T05:31:39.491Z,79.18
2022-10-20T05:34:08.213Z,80.27
2022-10-20T05:36:38.329Z,72.82
2022-10-20T05:39:06.926Z,67.35
2022-10-20T05:41:38.716Z,66.50
2022-10-20T05:44:09.792Z,64.29
2022-10-20T05:46:41.704Z,64.08
2022-10-20T05:49:14.230Z,65.05
2022-10-20T05:51:44.424Z,64.14
2022-10-20T05:54:14.282Z,63.26
2022-10-20T05:56:42.903Z,63.03
2022-10-20T05:59:11.904Z,63.16
2022-10-20T06:01:48.310Z,61.55
2022-10-20T06:04:18.829Z,59.83
2022-10-20T06:06:49.472Z,58.97
2022-10-20T06:09:18.439Z,58.31
2022-10-20T06:11:46.798Z,56.19
2022-10-20T06:14:15.351Z,54.63
2022-10-20T06:16:43.684Z,53.90
2022-10-20T06:19:12.361Z,53.20
2022-10-20T06:21:40.663Z,53.42
2022-10-20T06:24:11.278Z,50.62
2022-10-20T06:26:40.869Z,50.47
2022-10-20T06:29:12.453Z,49.27
2022-10-20T06:31:43.538Z,50.54
2022-10-20T06:34:15.172Z,49.83
2022-10-20T06:36:44.057Z,47.76
2022-10-20T06:39:16.564Z,47.42
2022-10-20T06:41:47.710Z,47.00
2022-10-20T06:44:15.964Z,48.31
2022-10-20T06:46:44.261Z,48.77
2022-10-20T06:49:13.219Z,47.57
2022-10-20T06:51:42.130Z,47.93
2022-10-20T06:54:10.584Z,49.22
2022-10-20T06:56:40.778Z,48.88
2022-10-20T06:59:09.390Z,47.52
2022-10-20T07:01:39.784Z,45.77
2022-10-20T07:04:11.505Z,46.04
2022-10-20T07:06:41.821Z,44.84
2022-10-20T07:09:14.826Z,45.44
2022-10-20T07:11:45.077Z,45.26
2022-10-20T07:14:14.714Z,43.78
2022-10-20T07:16:43.114Z,44.25
2022-10-20T07:19:11.545Z,43.56
2022-10-20T07:21:45.629Z,42.99
2022-10-20T07:24:14.464Z,43.18
2022-10-20T07:26:44.368Z,43.19
2022-10-20T07:29:13.964Z,42.21
2022-10-20T07:31:44.182Z,42.84
2022-10-20T07:34:25.206Z,43.20
2022-10-20T07:36:55.275Z,43.04
2022-10-20T07:39:23.822Z,42.15
2022-10-20T07:41:53.566Z,44.89
2022-10-20T07:44:21.922Z,43.06
2022-10-20T07:46:50.264Z,40.56
2022-10-20T07:49:43.483Z,40.04
2022-10-20T07:52:07.722Z,41.14
2022-10-20T07:54:35.965Z,39.76
2022-10-20T07:57:05.735Z,38.54
2022-10-20T07:59:34.096Z,37.65
2022-10-20T08:02:02.607Z,39.53
2022-10-20T08:04:31.799Z,39.93
2022-10-20T08:07:00.843Z,39.19
2022-10-20T08:09:29.275Z,39.89
2022-10-20T08:11:57.643Z,40.05
2022-10-20T08:14:31.961Z,38.79
2022-10-20T08:17:03.119Z,37.33
2022-10-20T08:19:49.198Z,37.52
2022-10-20T08:22:19.296Z,37.98
2022-10-20T08:24:47.700Z,37.08
2022-10-20T08:27:16.036Z,36.14
2022-10-20T08:29:54.935Z,35.64
2022-10-20T08:32:34.235Z,34.37
2022-10-20T08:35:02.688Z,34.79
2022-10-20T08:37:31.620Z,34.73
2022-10-20T08:40:00.105Z,35.26
2022-10-20T08:42:28.606Z,35.38
2022-10-20T08:45:01.521Z,34.85
2022-10-20T08:47:34.517Z,33.57
2022-10-20T08:50:04.705Z,33.45
2022-10-20T08:52:33.907Z,33.17
2022-10-20T08:55:06.184Z,32.87
2022-10-20T08:57:36.955Z,33.22
2022-10-20T09:00:17.580Z,33.79
2022-10-20T09:02:46.233Z,32.91
2022-10-20T09:05:19.120Z,33.09
2022-10-20T09:07:50.076Z,34.51
2022-10-20T09:10:32.715Z,33.14
2022-10-20T09:13:01.642Z,33.11
2022-10-20T09:15:31.304Z,34.44
2022-10-20T09:18:02.312Z,31.77
2022-10-20T09:20:35.126Z,32.11
2022-10-20T09:23:07.869Z,31.33
2022-10-20T09:25:46.292Z,29.40
2022-10-20T09:28:24.305Z,29.88
2022-10-20T09:30:54.167Z,31.21
2022-10-20T09:33:30.076Z,31.75
2022-10-20T09:36:05.530Z,30.73
2022-10-20T09:38:36.715Z,30.24
2022-10-20T09:41:11.903Z,29.49
2022-10-20T09:43:42.668Z,29.58
2022-10-20T09:46:13.210Z,29.29
2022-10-20T09:48:48.017Z,29.84
2022-10-20T09:51:19.895Z,30.10
2022-10-20T09:53:56.844Z,29.99
2022-10-20T09:56:27.240Z,28.24
2022-10-20T09:58:57.072Z,27.57
2022-10-20T10:01:26.978Z,28.86
2022-10-20T10:04:00.099Z,28.75
2022-10-20T10:06:31.541Z,27.94
2022-10-20T10:09:02.042Z,28.27
2022-10-20T10:11:36.500Z,28.00
2022-10-20T10:14:06.299Z,27.50
2022-10-20T10:16:45.436Z,28.38
2022-10-20T10:19:20.998Z,25.79
2022-10-20T10:21:55.133Z,25.88
2022-10-20T10:24:40.462Z,26.53
2022-10-20T10:27:21.769Z,26.28
2022-10-20T10:29:50.573Z,26.37
2022-10-20T10:32:25.148Z,25.87
2022-10-20T10:35:09.445Z,24.46
2022-10-20T10:37:40.110Z,24.62
2022-10-20T10:40:16.440Z,26.27
2022-10-20T10:43:01.471Z,24.17
2022-10-20T10:45:46.970Z,24.13
2022-10-20T10:48:54.431Z,23.89
2022-10-20T10:51:32.896Z,23.23
2022-10-20T10:54:14.248Z,24.73
2022-10-20T10:56:47.309Z,23.54
2022-10-20T10:59:22.518Z,23.28
2022-10-20T11:02:36.079Z,22.92
2022-10-20T11:05:23.553Z,23.22
2022-10-20T11:08:02.366Z,23.34
2022-10-20T11:10:38.075Z,23.16
2022-10-20T11:13:27.131Z,22.66
2022-10-20T11:16:07.543Z,22.33
2022-10-20T11:18:55.934Z,24.89
2022-10-20T11:21:35.790Z,22.02
2022-10-20T11:24:36.860Z,21.21
2022-10-20T11:27:11.180Z,23.28
2022-10-20T11:29:43.544Z,24.05
2022-10-20T11:32:23.066Z,22.50
2022-10-20T11:35:00.915Z,23.01
2022-10-20T11:37:33.153Z,22.10
2022-10-20T11:40:14.858Z,24.31
2022-10-20T11:42:47.912Z,20.77
2022-10-20T11:45:38.877Z,22.18
2022-10-20T11:48:15.380Z,21.21
2022-10-20T11:50:45.352Z,22.87
2022-10-20T11:53:40.216Z,23.59
2022-10-20T11:56:29.560Z,22.25
2022-10-20T11:59:22.883Z,21.28
2022-10-20T12:02:13.579Z,20.55
2022-10-20T12:05:02.252Z,22.42
2022-10-20T12:08:05.771Z,21.89
2022-10-20T12:10:55.274Z,21.72
2022-10-20T12:13:35.096Z,20.82
2022-10-20T12:16:03.804Z,20.58
2022-10-20T12:18:33.944Z,21.84
2022-10-20T12:21:05.046Z,21.87
2022-10-20T12:24:05.811Z,22.56
2022-10-20T12:27:04.408Z,22.84
2022-10-20T12:30:07.329Z,23.02
2022-10-20T12:32:39.897Z,22.84
2022-10-20T12:35:31.952Z,22.80
2022-10-20T12:38:04.407Z,23.39
2022-10-20T12:40:35.354Z,22.05
2022-10-20T12:43:07.868Z,23.01
2022-10-20T12:45:41.962Z,22.85
2022-10-20T12:48:21.285Z,22.49
2022-10-20T12:50:52.142Z,23.01
2022-10-20T12:53:26.804Z,24.55
2022-10-20T12:55:59.796Z,24.62
2022-10-20T12:58:31.620Z,23.28
2022-10-20T13:01:06.678Z,22.91
2022-10-20T13:03:44.374Z,23.28
2022-10-20T13:06:43.289Z,23.93
2022-10-20T13:09:23.144Z,24.22
2022-10-20T13:12:06.171Z,23.97
2022-10-20T13:14:48.036Z,23.99
2022-10-20T13:17:29.751Z,24.21
2022-10-20T13:20:02.610Z,24.11
2022-10-20T13:22:39.132Z,25.09
2022-10-20T13:25:16.044Z,24.30
2022-10-20T13:27:44.306Z,26.27
2022-10-20T13:30:22.692Z,25.98
2022-10-20T13:33:17.851Z,26.27
2022-10-20T13:35:55.841Z,25.44
2022-10-20T13:38:31.490Z,25.72
2022-10-20T13:41:05.182Z,25.82
2022-10-20T13:43:42.816Z,25.98
2022-10-20T13:46:39.377Z,27.25
2022-10-20T13:49:24.509Z,28.93
2022-10-20T13:51:56.824Z,28.81
2022-10-20T13:54:29.146Z,28.68
2022-10-20T13:56:58.291Z,28.49
2022-10-20T13:59:28.335Z,29.07
2022-10-20T14:02:01.331Z,29.82
2022-10-20T14:04:32.505Z,30.27
2022-10-20T14:07:05.160Z,30.64
2022-10-20T14:09:33.509Z,31.36
2022-10-20T14:12:05.914Z,30.52
2022-10-20T14:14:35.278Z,29.93
2022-10-20T14:17:07.218Z,29.53
2022-10-20T14:19:36.476Z,30.15
2022-10-20T14:22:14.820Z,30.08
2022-10-20T14:24:45.632Z,29.86
2022-10-20T14:27:18.930Z,30.27
2022-10-20T14:29:47.631Z,30.56
2022-10-20T14:32:20.278Z,30.98
2022-10-20T14:34:57.620Z,32.04
2022-10-20T14:37:32.257Z,32.69
2022-10-20T14:40:02.603Z,33.30
2022-10-20T14:42:33.407Z,34.66
2022-10-20T14:45:07.428Z,35.00
2022-10-20T14:47:43.365Z,34.10
2022-10-20T14:50:23.937Z,34.10
2022-10-20T14:52:54.316Z,35.21
2022-10-20T14:55:38.234Z,35.98
2022-10-20T14:58:06.638Z,36.03
2022-10-20T15:00:37.283Z,36.09
2022-10-20T15:03:08.616Z,35.99
2022-10-20T15:05:41.497Z,35.82
2022-10-20T15:08:12.790Z,36.22
2022-10-20T15:10:41.148Z,35.88
2022-10-20T15:13:26.529Z,36.23
2022-10-20T15:15:57.302Z,36.55
2022-10-20T15:18:27.802Z,36.39
2022-10-20T15:20:56.645Z,36.90
2022-10-20T15:23:27.022Z,38.62
2022-10-20T15:25:59.395Z,38.43
2022-10-20T15:28:32.800Z,38.47
2022-10-20T15:31:02.235Z,37.84
2022-10-20T15:33:32.822Z,37.73
2022-10-20T15:36:01.996Z,39.03
2022-10-20T15:38:30.666Z,38.76
2022-10-20T15:43:35.034Z,38.58
2022-10-20T15:46:04.460Z,37.94
2022-10-20T15:48:34.119Z,38.91
2022-10-20T15:51:02.470Z,39.23
2022-10-20T15:53:30.790Z,40.33
2022-10-20T15:55:59.159Z,40.14
2022-10-20T15:58:27.485Z,40.15
2022-10-20T16:00:55.812Z,40.46
2022-10-20T16:03:24.121Z,40.49
2022-10-20T16:05:53.886Z,41.39
2022-10-20T16:08:22.114Z,42.23
2022-10-20T16:10:50.382Z,42.52
2022-10-20T16:13:21.243Z,43.42
2022-10-20T16:15:49.497Z,43.90
2022-10-20T16:18:17.765Z,44.31
2022-10-20T16:20:46.064Z,44.32
2022-10-20T16:23:15.732Z,43.43
2022-10-20T16:25:44.782Z,44.07
2022-10-20T16:28:13.226Z,43.51
2022-10-20T16:30:42.097Z,43.04
2022-10-20T16:33:11.339Z,44.08
2022-10-20T16:35:43.400Z,44.07
2022-10-20T16:38:12.116Z,44.00
2022-10-20T16:40:41.797Z,44.81
2022-10-20T16:43:10.309Z,44.97
2022-10-20T16:45:41.047Z,45.70
2022-10-20T16:48:09.349Z,46.73
2022-10-20T16:50:42.105Z,47.12
2022-10-20T16:53:10.591Z,46.82
2022-10-20T16:55:41.301Z,46.27
2022-10-20T16:58:09.597Z,46.56
2022-10-20T17:00:37.976Z,46.56
2022-10-20T17:03:06.222Z,45.72
2022-10-20T17:05:34.524Z,44.68
2022-10-20T17:08:02.944Z,45.92
2022-10-20T17:10:31.340Z,47.06
2022-10-20T17:13:00.952Z,47.48
2022-10-20T17:15:30.136Z,48.56
2022-10-20T17:17:58.349Z,48.46
2022-10-20T17:20:26.761Z,48.34
2022-10-20T17:22:56.385Z,49.47
2022-10-20T17:25:24.766Z,50.40
2022-10-20T17:27:53.016Z,50.22
2022-10-20T17:30:23.276Z,50.61
2022-10-20T17:32:51.556Z,49.85
2022-10-20T17:35:20.044Z,47.87
2022-10-20T17:37:48.257Z,46.80
2022-10-20T17:42:46.253Z,46.71
2022-10-20T17:45:14.576Z,47.12
2022-10-20T17:47:47.773Z,47.21
2022-10-20T17:50:16.204Z,46.41
2022-10-20T17:52:44.526Z,46.35
2022-10-20T17:55:13.994Z,45.88
2022-10-20T17:57:44.767Z,46.45
2022-10-20T18:00:22.428Z,46.36
2022-10-20T18:02:56.641Z,46.53
2022-10-20T18:05:25.146Z,46.41
2022-10-20T18:07:53.804Z,46.79
2022-10-20T18:12:56.743Z,49.59
2022-10-20T18:15:25.212Z,48.00
2022-10-20T18:17:53.470Z,47.38
2022-10-20T18:20:23.491Z,47.81
2022-10-20T18:22:55.551Z,47.15
2022-10-20T18:25:23.891Z,48.74
2022-10-20T18:27:54.316Z,48.66
2022-10-20T18:30:22.538Z,48.25
2022-10-20T18:32:53.014Z,48.06
2022-10-20T18:35:23.657Z,47.56
2022-10-20T18:37:57.550Z,47.56
2022-10-20T18:40:25.921Z,49.14
2022-10-20T18:42:55.514Z,48.99
2022-10-20T18:45:25.980Z,50.01
2022-10-20T18:47:56.855Z,49.34
2022-10-20T18:50:26.830Z,49.29
2022-10-20T18:52:57.200Z,50.10
2022-10-20T18:55:34.363Z,49.63
2022-10-20T18:58:03.761Z,49.19
2022-10-20T19:00:32.160Z,49.39
2022-10-20T19:03:01.771Z,48.58
2022-10-20T19:05:32.001Z,49.23
2022-10-20T19:08:00.534Z,48.49
2022-10-20T19:10:29.020Z,48.79
2022-10-20T19:12:58.417Z,51.93
2022-10-20T19:15:26.922Z,50.67
2022-10-20T19:17:59.352Z,49.88
2022-10-20T19:20:32.617Z,49.67
2022-10-20T19:23:00.945Z,49.12
2022-10-20T19:25:29.236Z,49.11
2022-10-20T19:27:57.714Z,49.57
2022-10-20T19:30:26.322Z,49.14
2022-10-20T19:32:55.132Z,48.88
2022-10-20T19:35:23.645Z,50.42
2022-10-20T19:37:53.294Z,49.66
2022-10-20T19:40:23.905Z,49.89
2022-10-20T19:42:53.304Z,49.46
2022-10-20T19:45:21.566Z,49.77
2022-10-20T19:47:50.048Z,49.58
2022-10-20T19:50:18.504Z,49.84
2022-10-20T19:52:48.082Z,50.12
2022-10-20T19:55:17.762Z,49.98
2022-10-20T19:57:46.300Z,50.53
2022-10-20T20:00:15.004Z,52.85
2022-10-20T20:02:43.667Z,55.21
2022-10-20T20:05:11.976Z,55.25
2022-10-20T20:07:40.635Z,54.57
2022-10-20T20:10:10.292Z,52.60
2022-10-20T20:12:39.944Z,52.54
2022-10-20T20:15:08.589Z,51.34
2022-10-20T20:17:37.092Z,52.28
2022-10-20T20:20:06.092Z,52.17
2022-10-20T20:22:34.295Z,51.63
2022-10-20T20:25:02.548Z,51.46
2022-10-20T20:27:30.790Z,52.36
2022-10-20T20:30:02.334Z,52.87
2022-10-20T20:32:32.277Z,52.33
2022-10-20T20:35:00.725Z,51.87
2022-10-20T20:37:28.966Z,51.72
2022-10-20T20:39:57.309Z,51.86
2022-10-20T20:42:25.539Z,51.88
2022-10-20T20:44:53.833Z,52.47
2022-10-20T20:47:23.517Z,54.71
2022-10-20T20:49:51.771Z,54.52
2022-10-20T20:52:20.117Z,54.95
2022-10-20T20:54:48.332Z,57.75
2022-10-20T20:57:16.630Z,57.49
2022-10-20T20:59:44.925Z,56.87
2022-10-20T21:02:13.168Z,56.07
2022-10-20T21:04:42.917Z,56.16
2022-10-20T21:07:11.181Z,56.62
2022-10-20T21:09:39.450Z,55.82
2022-10-20T21:12:07.790Z,55.90
2022-10-20T21:14:36.192Z,58.67
2022-10-20T21:17:04.488Z,58.88
2022-10-20T21:19:32.756Z,60.51
2022-10-20T21:22:02.480Z,59.13
2022-10-20T21:24:30.662Z,57.17
2022-10-20T21:26:58.913Z,57.23
2022-10-20T21:29:27.258Z,57.98
2022-10-20T21:31:56.265Z,59.22
2022-10-20T21:34:24.491Z,60.31
2022-10-20T21:36:52.751Z,58.85
2022-10-20T21:39:22.455Z,60.21
2022-10-20T21:41:51.092Z,60.86
2022-10-20T21:44:19.325Z,61.18
2022-10-20T21:46:50.180Z,61.30
2022-10-20T21:49:20.066Z,60.36
2022-10-20T21:51:52.411Z,57.72
2022-10-20T21:54:25.240Z,56.93
2022-10-20T21:56:54.345Z,56.86
2022-10-20T21:59:25.067Z,57.00
2022-10-20T22:01:55.075Z,56.58
2022-10-20T22:04:25.581Z,56.81
2022-10-20T22:06:53.844Z,56.63
2022-10-20T22:09:23.738Z,56.89
2022-10-20T22:11:55.374Z,57.02
2022-10-20T22:14:24.105Z,56.98
2022-10-20T22:16:52.398Z,56.69
2022-10-20T22:19:22.685Z,57.20
2022-10-20T22:21:52.993Z,56.87
2022-10-20T22:24:23.754Z,57.98
2022-10-20T22:26:53.639Z,57.27
2022-10-20T22:29:22.719Z,57.24
2022-10-20T22:31:51.764Z,57.08
2022-10-20T22:34:19.968Z,56.59
2022-10-20T22:36:48.544Z,56.49
2022-10-20T22:39:16.874Z,57.11
2022-10-20T22:41:46.575Z,57.89
2022-10-20T22:44:14.821Z,57.65
2022-10-20T22:46:43.310Z,58.71
2022-10-20T22:49:13.765Z,57.58
2022-10-20T22:51:42.032Z,57.49
2022-10-20T22:54:10.414Z,59.76
2022-10-20T22:56:38.679Z,59.59
2022-10-20T22:59:08.340Z,58.38
2022-10-20T23:01:36.608Z,58.35
2022-10-20T23:04:04.877Z,60.24
2022-10-20T23:06:33.136Z,60.50
2022-10-20T23:09:01.429Z,60.05
2022-10-20T23:11:30.402Z,59.07
2022-10-20T23:13:58.668Z,61.54
2022-10-20T23:16:28.546Z,60.38
2022-10-20T23:18:56.872Z,61.04
2022-10-20T23:21:25.127Z,59.61
2022-10-20T23:23:53.523Z,59.00
2022-10-20T23:26:21.839Z,59.42
2022-10-20T23:28:50.154Z,59.68
2022-10-20T23:31:33.428Z,58.71
2022-10-20T23:34:03.361Z,58.91
2022-10-20T23:36:34.234Z,60.08
2022-10-20T23:39:05.122Z,59.14
2022-10-20T23:41:33.399Z,59.87
2022-10-20T23:44:01.643Z,59.39
2022-10-20T23:46:32.382Z,58.81
2022-10-20T23:49:03.399Z,59.93
2022-10-20T23:51:31.840Z,59.40
2022-10-20T23:54:00.114Z,59.96
2022-10-20T23:56:28.519Z,59.32
2022-10-20T23:58:56.755Z,60.14
